Hardesty, Oklahoma
Current Conditions -  °F | °C
As of 7:53 AM on Tuesday 21 Oct 2014 (Local Time) from KGUY Reporting Station
Clear Clear  
Wind Chill: 45°   Ceiling: Unl
Heat Index: 47°   Visibility: 7mi
Dew Point: 46°   Wind: 5mph
Humidity: 97%   Direction: 220°SW
Pressure: 30.07"   Gusts: NA
Location:  36.62°N, 101.19°W
Report Text: KGUY 211253Z AUTO 22004KT 7SM CLR 08/08 A3007 RMK AO2 SLP160 T00830078
Loading
Personal Weather Stations






























Interactive Weather Map
Tropical Storm Tracking
New forecast layout! Learn more

10-Day Weather Forecast

Advertisements
Track Severe Weather on mobile